Time;durP1;ratioP1;P1;durP2;ratioP2;P2;SDS_P1;SDS_P2;PMS_P1;PMS_P2;Temp;Humidity;BMP_temperature;BMP_pressure;BME280_temperature;BME280_humidity;BME280_pressure;Samples;Min_cycle;Max_cycle;Signal;HPM_P1;HPM_P2
2022/05/10 00:02:18;;;;;;;;;;;;;;;14.51;45.53;101386.09;4952202;28;126483;-61
2022/05/10 00:04:47;;;;;;;;;;;;;;;14.46;45.97;101386.03;4939945;28;104261;-61
2022/05/10 00:07:13;;;;;;;;;;;;;;;14.42;45.94;101387.66;4956208;28;126089;-60
2022/05/10 00:09:39;;;;;;;;;;;;;;;14.37;46.11;101384.94;4958609;28;125977;-61
2022/05/10 00:12:05;;;;;;;;;;;;;;;14.32;46.20;101379.53;4954022;28;126593;-63
2022/05/10 00:14:31;;;;;;;;;;;;;;;14.28;46.18;101383.88;4960580;28;98130;-60
2022/05/10 00:16:57;;;;;;;;;;;;;;;14.24;46.25;101378.97;4962649;28;124476;-61
2022/05/10 00:19:27;;;;;;;;;;;;;;;14.23;46.20;101381.97;4959823;28;127701;-61
2022/05/10 00:21:53;;;;;;;;;;;;;;;14.19;46.25;101370.84;4959567;28;99216;-61
2022/05/10 00:24:19;;;;;;;;;;;;;;;14.17;46.53;101373.00;4957502;28;117063;-61
2022/05/10 00:26:45;;;;;;;;;;;;;;;14.14;46.60;101372.72;4941999;28;127232;-62
2022/05/10 00:29:11;;;;;;;;;;;;;;;14.10;46.38;101369.72;4942285;28;128107;-63
2022/05/10 00:31:37;;;;;;;;;;;;;;;14.07;46.68;101366.75;4942015;28;128131;-62
2022/05/10 00:34:03;;;;;;;;;;;;;;;14.02;46.57;101370.25;4962257;28;117505;-63
2022/05/10 00:36:28;;;;;;;;;;;;;;;13.99;46.75;101365.41;4961585;28;128296;-63
2022/05/10 00:38:55;;;;;;;;;;;;;;;13.98;46.91;101371.88;4943450;28;127303;-63
2022/05/10 00:41:36;;;;;;;;;;;;;;;13.94;46.84;101362.66;4960226;28;98258;-62
2022/05/10 00:44:07;;;;;;;;;;;;;;;13.89;46.88;101357.22;4959147;28;98010;-62
2022/05/10 00:46:36;;;;;;;;;;;;;;;13.85;47.18;101364.28;4955942;28;126178;-63
2022/05/10 00:49:26;;;;;;;;;;;;;;;13.82;47.21;101362.09;4957688;28;98934;-63
2022/05/10 00:52:05;;;;;;;;;;;;;;;13.76;47.34;101350.44;4958309;28;98342;-63
2022/05/10 00:55:05;;;;;;;;;;;;;;;13.70;47.40;101359.63;4945477;28;98112;-62
2022/05/10 00:57:47;;;;;;;;;;;;;;;13.65;47.51;101359.63;4960911;28;99334;-63
2022/05/10 01:00:26;;;;;;;;;;;;;;;13.62;47.50;101357.44;4960050;28;98268;-63
2022/05/10 01:03:11;;;;;;;;;;;;;;;13.59;47.47;101352.53;4935748;28;122093;-63
2022/05/10 01:05:56;;;;;;;;;;;;;;;13.56;47.82;101355.78;4957547;28;98150;-63
2022/05/10 01:08:51;;;;;;;;;;;;;;;13.51;47.84;101351.16;4959061;28;98353;-63
2022/05/10 01:11:25;;;;;;;;;;;;;;;13.47;47.94;101347.34;4935190;28;98824;-63
2022/05/10 01:13:52;;;;;;;;;;;;;;;13.41;47.91;101341.13;4958909;28;99279;-62
2022/05/10 01:16:20;;;;;;;;;;;;;;;13.37;48.09;101344.63;4961085;28;98125;-62
2022/05/10 01:18:46;;;;;;;;;;;;;;;13.31;48.14;101338.34;4959540;28;99068;-63
2022/05/10 01:21:44;;;;;;;;;;;;;;;13.28;48.31;101344.28;4961215;28;99112;-62
2022/05/10 01:24:40;;;;;;;;;;;;;;;13.25;48.32;101336.72;4942531;28;97988;-62
2022/05/10 01:27:27;;;;;;;;;;;;;;;13.22;48.64;101334.50;4944239;28;98135;-62
2022/05/10 01:30:04;;;;;;;;;;;;;;;13.16;48.94;101333.63;4983575;28;97629;-62
2022/05/10 01:35:22;;;;;;;;;;;;;;;12.99;49.11;101333.03;4939242;28;97818;-63
2022/05/10 01:37:51;;;;;;;;;;;;;;;12.94;48.87;101327.59;4940147;28;115942;-62
2022/05/10 01:40:31;;;;;;;;;;;;;;;12.87;49.32;101327.81;4955332;28;99004;-62
2022/05/10 01:43:07;;;;;;;;;;;;;;;12.80;49.32;101327.22;4960592;28;98342;-63
2022/05/10 01:45:34;;;;;;;;;;;;;;;12.73;49.45;101327.47;4960505;28;98254;-63
2022/05/10 01:48:01;;;;;;;;;;;;;;;12.71;49.67;101331.50;4961519;28;97867;-62
2022/05/10 01:50:47;;;;;;;;;;;;;;;12.67;49.35;101333.09;4957148;28;98294;-63
2022/05/10 01:53:18;;;;;;;;;;;;;;;12.66;49.79;101328.78;4938700;28;119112;-62
2022/05/10 01:55:58;;;;;;;;;;;;;;;12.61;49.87;101331.44;4941880;28;98225;-63
2022/05/10 01:58:26;;;;;;;;;;;;;;;12.58;49.66;101326.56;4941608;28;114792;-63
2022/05/10 02:01:20;;;;;;;;;;;;;;;12.53;50.06;101327.31;4957902;28;126629;-63
2022/05/10 02:03:52;;;;;;;;;;;;;;;12.48;49.97;101330.81;4951438;28;98830;-63
2022/05/10 02:06:40;;;;;;;;;;;;;;;12.43;50.23;101314.53;4940713;28;126597;-63
2022/05/10 02:09:43;;;;;;;;;;;;;;;12.42;50.49;101323.75;4940717;28;97892;-62
2022/05/10 02:12:13;;;;;;;;;;;;;;;12.39;50.18;101318.84;4901400;28;108533;-63
2022/05/10 02:14:44;;;;;;;;;;;;;;;12.35;50.26;101319.63;4931450;28;125626;-62
2022/05/10 02:17:19;;;;;;;;;;;;;;;12.32;50.65;101320.94;4940607;28;98375;-62
2022/05/10 02:19:49;;;;;;;;;;;;;;;12.28;50.23;101319.84;4964595;28;97981;-63
2022/05/10 02:22:20;;;;;;;;;;;;;;;12.23;50.55;101315.19;4961167;28;116273;-62
2022/05/10 02:24:53;;;;;;;;;;;;;;;12.17;50.90;101324.31;4959508;28;99389;-63
2022/05/10 02:27:20;;;;;;;;;;;;;;;12.13;51.10;101317.81;4958719;28;117739;-63
2022/05/10 02:29:48;;;;;;;;;;;;;;;12.09;50.93;101313.19;4951884;28;99402;-62
2022/05/10 02:35:06;;;;;;;;;;;;;;;11.98;51.37;101306.84;4946554;28;98355;-63
2022/05/10 02:37:32;;;;;;;;;;;;;;;11.94;51.28;101311.13;4940167;28;125713;-62
2022/05/10 02:39:59;;;;;;;;;;;;;;;11.91;51.22;101303.56;4942913;28;97916;-62
2022/05/10 02:42:25;;;;;;;;;;;;;;;11.88;51.37;101306.78;4955625;28;97906;-63
2022/05/10 02:44:54;;;;;;;;;;;;;;;11.86;51.77;101309.72;4939986;28;123431;-63
2022/05/10 02:47:31;;;;;;;;;;;;;;;11.84;51.31;101298.38;4940021;28;99075;-62
2022/05/10 02:49:56;;;;;;;;;;;;;;;11.83;51.51;101306.69;4939944;28;98010;-63
2022/05/10 02:52:22;;;;;;;;;;;;;;;11.81;51.97;101301.53;4942006;28;125650;-63
2022/05/10 02:54:57;;;;;;;;;;;;;;;11.80;52.06;101299.91;4939643;28;128536;-62
2022/05/10 02:57:24;;;;;;;;;;;;;;;11.77;52.02;101295.84;4939604;28;105011;-63
2022/05/10 02:59:50;;;;;;;;;;;;;;;11.75;51.47;101297.16;4961308;28;117882;-63
2022/05/10 03:02:22;;;;;;;;;;;;;;;11.75;51.68;101289.88;4961395;28;128167;-63
2022/05/10 03:04:53;;;;;;;;;;;;;;;11.75;51.46;101291.75;4938636;28;100069;-63
2022/05/10 03:07:19;;;;;;;;;;;;;;;11.73;51.78;101291.19;4941620;28;102104;-63
2022/05/10 03:09:45;;;;;;;;;;;;;;;11.69;51.72;101292.78;4957773;28;97718;-62
2022/05/10 03:12:11;;;;;;;;;;;;;;;11.65;52.10;101291.66;4950085;28;127366;-63
2022/05/10 03:14:37;;;;;;;;;;;;;;;11.60;52.24;101287.03;4940600;28;124944;-63
2022/05/10 03:17:04;;;;;;;;;;;;;;;11.57;52.56;101286.72;4937328;28;125232;-63
2022/05/10 03:19:30;;;;;;;;;;;;;;;11.53;52.12;101287.22;4941076;28;97759;-62
2022/05/10 03:21:56;;;;;;;;;;;;;;;11.53;52.35;101295.31;4941069;28;98795;-63
2022/05/10 03:24:22;;;;;;;;;;;;;;;11.53;52.44;101284.50;4954742;28;126870;-63
2022/05/10 03:26:49;;;;;;;;;;;;;;;11.53;52.31;101291.81;4960166;28;116012;-63
2022/05/10 03:29:15;;;;;;;;;;;;;;;11.51;52.60;101286.66;4942609;28;104065;-63
2022/05/10 03:31:41;;;;;;;;;;;;;;;11.50;52.74;101292.31;4940703;28;98207;-63
2022/05/10 03:36:52;;;;;;;;;;;;;;;11.46;52.53;101286.59;4957766;28;97973;-63
2022/05/10 03:39:18;;;;;;;;;;;;;;;11.46;53.05;101288.47;4958360;28;117781;-63
2022/05/10 03:41:44;;;;;;;;;;;;;;;11.44;52.90;101287.94;4959798;28;123761;-63
2022/05/10 03:44:10;;;;;;;;;;;;;;;11.45;52.49;101286.84;4946033;28;97768;-63
2022/05/10 03:46:35;;;;;;;;;;;;;;;11.44;52.70;101285.22;4940143;28;126489;-63
2022/05/10 03:49:01;;;;;;;;;;;;;;;11.46;52.44;101283.06;4940250;28;118300;-63
2022/05/10 03:51:28;;;;;;;;;;;;;;;11.48;52.91;101287.16;4943113;28;108983;-63
2022/05/10 03:53:54;;;;;;;;;;;;;;;11.48;53.04;101279.06;4953078;28;125423;-63
2022/05/10 03:56:20;;;;;;;;;;;;;;;11.48;53.20;101289.88;4962008;28;125506;-63
2022/05/10 03:58:46;;;;;;;;;;;;;;;11.50;52.82;101284.19;4961903;28;117329;-63
2022/05/10 04:01:12;;;;;;;;;;;;;;;11.52;52.75;101284.78;4945888;28;126263;-63
2022/05/10 04:03:38;;;;;;;;;;;;;;;11.54;52.81;101280.75;4961285;28;128231;-63
2022/05/10 04:06:04;;;;;;;;;;;;;;;11.58;53.17;101282.94;4960124;28;128755;-63
2022/05/10 04:08:30;;;;;;;;;;;;;;;11.60;53.20;101278.91;4963933;28;97884;-62
2022/05/10 04:11:04;;;;;;;;;;;;;;;11.62;52.94;101281.34;4958458;28;124338;-62
2022/05/10 04:13:31;;;;;;;;;;;;;;;11.65;52.83;101281.66;4943427;28;99213;-63
2022/05/10 04:15:58;;;;;;;;;;;;;;;11.66;52.68;101279.78;4943253;28;98215;-63
2022/05/10 04:18:24;;;;;;;;;;;;;;;11.68;53.12;101274.94;4943619;28;118119;-63
2022/05/10 04:20:49;;;;;;;;;;;;;;;11.71;52.85;101277.13;4942735;28;119953;-62
2022/05/10 04:23:16;;;;;;;;;;;;;;;11.75;53.08;101272.84;4943295;28;125687;-62
2022/05/10 04:25:42;;;;;;;;;;;;;;;11.80;52.47;101272.91;4943518;28;97954;-63
2022/05/10 04:28:08;;;;;;;;;;;;;;;11.86;52.74;101276.50;4943475;28;101418;-63
2022/05/10 04:30:34;;;;;;;;;;;;;;;11.91;52.91;101268.44;4942845;28;115428;-63
2022/05/10 04:33:00;;;;;;;;;;;;;;;11.96;52.76;101271.19;4945572;28;98453;-62
2022/05/10 04:35:26;;;;;;;;;;;;;;;11.99;53.25;101259.88;4961043;28;127188;-63
2022/05/10 04:37:52;;;;;;;;;;;;;;;12.09;52.56;101269.94;4960911;28;118625;-63
2022/05/10 04:43:05;;;;;;;;;;;;;;;12.36;52.46;101264.47;4942190;28;98391;-62
2022/05/10 04:45:31;;;;;;;;;;;;;;;12.48;52.17;101274.00;4962429;28;98095;-63
2022/05/10 04:47:57;;;;;;;;;;;;;;;12.60;52.44;101264.91;4962364;28;116610;-63
2022/05/10 04:50:23;;;;;;;;;;;;;;;12.73;52.30;101265.25;4960832;28;126197;-62
2022/05/10 04:52:49;;;;;;;;;;;;;;;12.86;51.82;101263.16;4961624;28;127251;-62
2022/05/10 04:55:15;;;;;;;;;;;;;;;12.98;51.80;101277.28;4941707;28;127809;-63
2022/05/10 04:57:41;;;;;;;;;;;;;;;13.13;51.67;101271.94;4943170;28;97930;-62
2022/05/10 05:00:10;;;;;;;;;;;;;;;13.27;51.56;101270.38;4952047;28;98284;-62
2022/05/10 05:02:36;;;;;;;;;;;;;;;13.44;51.27;101262.06;4962364;28;98817;-62
2022/05/10 05:05:02;;;;;;;;;;;;;;;13.62;50.87;101262.63;4960049;28;126720;-63
2022/05/10 05:07:28;;;;;;;;;;;;;;;13.80;50.89;101267.53;4961759;28;115244;-63
2022/05/10 05:09:55;;;;;;;;;;;;;;;13.99;50.53;101265.09;4942325;28;128539;-63
2022/05/10 05:12:22;;;;;;;;;;;;;;;14.19;50.12;101256.97;4961229;28;99745;-61
2022/05/10 05:14:48;;;;;;;;;;;;;;;14.36;49.97;101264.81;4955962;28;125279;-61
2022/05/10 05:17:14;;;;;;;;;;;;;;;14.56;49.45;101263.19;4957599;28;110959;-63
2022/05/10 05:19:39;;;;;;;;;;;;;;;14.73;49.05;101259.06;4942161;28;105975;-63
2022/05/10 05:22:05;;;;;;;;;;;;;;;14.91;48.98;101262.28;4942035;28;125761;-63
2022/05/10 05:24:31;;;;;;;;;;;;;;;15.10;48.91;101270.63;4954536;28;99641;-60
2022/05/10 05:26:57;;;;;;;;;;;;;;;15.22;48.63;101262.97;4954494;28;117665;-63
2022/05/10 05:29:23;;;;;;;;;;;;;;;15.34;48.18;101260.72;4941709;28;104365;-61
2022/05/10 05:31:52;;;;;;;;;;;;;;;15.50;48.08;101266.88;4941877;28;99602;-63
2022/05/10 05:34:18;;;;;;;;;;;;;;;15.64;47.89;101248.03;4951187;28;98307;-63
2022/05/10 05:37:32;;;;;;;;;;;;;;;15.80;47.64;101257.75;4961466;28;118230;-63
2022/05/10 05:39:31;;;;;;;;;;;;;;;16.00;47.46;101253.25;4945530;28;99184;-62
2022/05/10 05:41:57;;;;;;;;;;;;;;;16.18;47.25;101255.25;4961296;28;127114;-62
2022/05/10 05:44:23;;;;;;;;;;;;;;;16.38;46.87;101255.06;4949662;28;124069;-63
2022/05/10 05:46:49;;;;;;;;;;;;;;;16.62;46.55;101257.84;4942240;28;97679;-62
2022/05/10 05:49:15;;;;;;;;;;;;;;;16.88;46.48;101257.56;4941176;28;114800;-62
2022/05/10 05:51:41;;;;;;;;;;;;;;;17.14;45.95;101249.91;4940803;28;119497;-62
2022/05/10 05:54:09;;;;;;;;;;;;;;;17.37;45.73;101249.03;4948879;28;111220;-63
2022/05/10 05:56:35;;;;;;;;;;;;;;;17.62;45.45;101238.88;4952524;28;98275;-62
2022/05/10 05:59:01;;;;;;;;;;;;;;;17.85;45.19;101240.72;4941877;28;103078;-63
2022/05/10 06:01:27;;;;;;;;;;;;;;;18.10;44.79;101239.47;4945315;28;127505;-63
2022/05/10 06:03:55;;;;;;;;;;;;;;;18.36;44.57;101228.13;4958501;28;126966;-63
2022/05/10 06:06:21;;;;;;;;;;;;;;;18.86;44.18;101236.44;4961701;28;98350;-63
2022/05/10 06:08:47;;;;;;;;;;;;;;;19.37;43.81;101233.44;4961303;28;128707;-61
2022/05/10 06:11:13;;;;;;;;;;;;;;;19.85;43.52;101230.16;4957941;28;127661;-61
2022/05/10 06:13:39;;;;;;;;;;;;;;;20.47;43.05;101229.34;4941856;28;98156;-62
2022/05/10 06:16:07;;;;;;;;;;;;;;;21.01;42.72;101234.72;4959154;28;118385;-63
2022/05/10 06:18:33;;;;;;;;;;;;;;;21.45;42.51;101224.63;4959797;28;98289;-62
2022/05/10 06:20:59;;;;;;;;;;;;;;;21.86;41.81;101226.88;4939126;28;99794;-61
2022/05/10 06:23:24;;;;;;;;;;;;;;;22.20;41.42;101222.47;4941499;28;127089;-61
2022/05/10 06:25:50;;;;;;;;;;;;;;;22.47;40.45;101224.00;4941533;28;97881;-61
2022/05/10 06:28:16;;;;;;;;;;;;;;;22.85;40.67;101217.66;4941252;28;99048;-62
2022/05/10 06:30:43;;;;;;;;;;;;;;;23.07;38.57;101222.91;4945433;28;98981;-61
2022/05/10 06:33:09;;;;;;;;;;;;;;;23.66;38.61;101216.50;4941856;28;97884;-62
2022/05/10 06:35:35;;;;;;;;;;;;;;;24.28;38.49;101221.00;4942287;28;99234;-63
2022/05/10 06:38:16;;;;;;;;;;;;;;;24.92;37.25;101212.09;4958958;28;98503;-62
2022/05/10 06:40:43;;;;;;;;;;;;;;;25.67;36.26;101216.28;4959833;28;97900;-61
2022/05/10 06:43:09;;;;;;;;;;;;;;;26.96;35.14;101211.28;4955768;28;98382;-60
2022/05/10 06:45:35;;;;;;;;;;;;;;;27.91;32.70;101210.91;4945144;28;97840;-62
2022/05/10 06:48:01;;;;;;;;;;;;;;;28.10;31.46;101206.13;4960479;28;123478;-62
2022/05/10 06:50:27;;;;;;;;;;;;;;;27.55;32.88;101201.88;4958597;28;98817;-60
2022/05/10 06:52:57;;;;;;;;;;;;;;;27.48;32.74;101199.00;4961010;28;98472;-62
2022/05/10 06:55:23;;;;;;;;;;;;;;;27.59;32.99;101202.78;4949050;28;97900;-61
2022/05/10 06:57:50;;;;;;;;;;;;;;;27.71;32.78;101191.53;4950334;28;129501;-60
2022/05/10 07:00:16;;;;;;;;;;;;;;;27.87;32.66;101203.34;4953998;28;98251;-60
2022/05/10 07:02:42;;;;;;;;;;;;;;;28.03;31.64;101194.91;4956736;28;117651;-62
2022/05/10 07:05:09;;;;;;;;;;;;;;;28.22;32.00;101194.06;4960515;28;102140;-60
2022/05/10 07:07:35;;;;;;;;;;;;;;;28.53;31.34;101193.03;4956288;28;98685;-62
2022/05/10 07:10:02;;;;;;;;;;;;;;;28.87;31.16;101185.56;4948948;28;98396;-61
2022/05/10 07:12:28;;;;;;;;;;;;;;;29.19;31.08;101178.88;4952498;28;126313;-63
2022/05/10 07:14:54;;;;;;;;;;;;;;;29.48;30.28;101180.84;4958411;28;117572;-60
2022/05/10 07:17:20;;;;;;;;;;;;;;;29.65;29.82;101181.44;4952155;28;127777;-60
2022/05/10 07:19:46;;;;;;;;;;;;;;;29.76;29.48;101182.34;4940178;28;129419;-62
2022/05/10 07:22:12;;;;;;;;;;;;;;;29.98;29.79;101172.25;4940122;28;115761;-61
2022/05/10 07:24:38;;;;;;;;;;;;;;;30.20;29.88;101179.63;4938888;28;116249;-62
2022/05/10 07:27:04;;;;;;;;;;;;;;;30.49;29.30;101180.63;4941476;28;127880;-61
2022/05/10 07:29:30;;;;;;;;;;;;;;;30.77;29.54;101182.03;4939751;28;125262;-60
2022/05/10 07:31:56;;;;;;;;;;;;;;;30.95;29.22;101177.38;4939867;28;127624;-62
2022/05/10 07:34:22;;;;;;;;;;;;;;;31.16;29.02;101170.31;4945883;28;116736;-61
2022/05/10 07:36:47;;;;;;;;;;;;;;;31.43;28.53;101168.84;4959690;28;128157;-61
2022/05/10 07:39:18;;;;;;;;;;;;;;;31.70;28.52;101171.28;4957228;28;126448;-60
2022/05/10 07:41:43;;;;;;;;;;;;;;;32.00;28.13;101171.78;4959888;28;99713;-60
2022/05/10 07:44:10;;;;;;;;;;;;;;;32.29;27.93;101171.75;4960854;28;97998;-62
2022/05/10 07:46:36;;;;;;;;;;;;;;;32.70;27.62;101169.34;4959993;28;97852;-60
2022/05/10 07:49:02;;;;;;;;;;;;;;;33.08;27.35;101168.84;4957938;28;121009;-61
2022/05/10 07:51:28;;;;;;;;;;;;;;;33.52;26.90;101159.88;4959726;28;110855;-62
2022/05/10 07:53:54;;;;;;;;;;;;;;;34.09;26.14;101167.88;4959263;28;118431;-61
2022/05/10 07:56:20;;;;;;;;;;;;;;;34.59;26.12;101158.28;4951238;28;102615;-62
2022/05/10 07:58:46;;;;;;;;;;;;;;;34.81;26.14;101156.00;4941138;28;99051;-61
2022/05/10 08:01:12;;;;;;;;;;;;;;;35.33;25.59;101151.00;4941759;28;127682;-61
2022/05/10 08:03:38;;;;;;;;;;;;;;;35.74;25.22;101158.41;4959440;28;97893;-60
2022/05/10 08:06:04;;;;;;;;;;;;;;;36.05;25.07;101150.75;4940532;28;98549;-62
2022/05/10 08:08:33;;;;;;;;;;;;;;;36.52;24.57;101158.34;4939524;28;111979;-60
2022/05/10 08:10:59;;;;;;;;;;;;;;;37.18;24.34;101151.81;4958668;28;98316;-62
2022/05/10 08:13:27;;;;;;;;;;;;;;;37.89;23.86;101141.00;4952029;28;98041;-62
2022/05/10 08:15:54;;;;;;;;;;;;;;;38.61;23.45;101144.75;4959497;28;98149;-62
2022/05/10 08:18:20;;;;;;;;;;;;;;;39.32;22.92;101145.50;4958142;28;98362;-60
2022/05/10 08:20:46;;;;;;;;;;;;;;;39.86;22.52;101136.13;4957614;28;97658;-61
2022/05/10 08:23:16;;;;;;;;;;;;;;;40.31;22.23;101132.19;4959776;28;112242;-60
2022/05/10 08:25:42;;;;;;;;;;;;;;;40.88;21.79;101126.50;4959212;28;98569;-60
2022/05/10 08:28:13;;;;;;;;;;;;;;;41.20;21.43;101125.28;4958818;28;126811;-60
2022/05/10 08:30:41;;;;;;;;;;;;;;;41.54;21.47;101134.84;4959965;28;98074;-63
2022/05/10 08:33:10;;;;;;;;;;;;;;;41.69;20.86;101118.88;4940273;28;97984;-62
2022/05/10 08:35:37;;;;;;;;;;;;;;;41.87;20.95;101121.78;4957300;28;98701;-60
2022/05/10 08:38:03;;;;;;;;;;;;;;;42.40;20.61;101115.03;4962736;28;98911;-62
2022/05/10 08:40:34;;;;;;;;;;;;;;;42.91;20.14;101117.19;4962244;28;103064;-60
2022/05/10 08:43:05;;;;;;;;;;;;;;;43.18;20.05;101115.53;4961606;28;98057;-61
2022/05/10 08:45:33;;;;;;;;;;;;;;;43.22;19.27;101107.66;4944444;28;103016;-62
2022/05/10 08:47:59;;;;;;;;;;;;;;;43.36;19.03;101106.94;4944527;28;98717;-62
2022/05/10 08:50:25;;;;;;;;;;;;;;;43.56;18.70;101093.00;4962037;28;126450;-60
2022/05/10 08:52:51;;;;;;;;;;;;;;;43.87;18.90;101093.94;4960435;28;97799;-62
2022/05/10 08:55:21;;;;;;;;;;;;;;;44.15;18.60;101086.75;4961303;28;98927;-62
2022/05/10 08:58:46;;;;;;;;;;;;;;;44.13;18.61;101085.66;4957486;28;97851;-60
2022/05/10 09:01:22;;;;;;;;;;;;;;;43.62;18.33;101079.72;4909874;28;98124;-60
2022/05/10 09:03:59;;;;;;;;;;;;;;;43.15;18.81;101069.09;4950880;28;97859;-60
2022/05/10 09:06:37;;;;;;;;;;;;;;;42.86;18.82;101086.66;4943160;28;98533;-60
2022/05/10 09:09:10;;;;;;;;;;;;;;;42.86;18.86;101072.50;4959713;28;107584;-62
2022/05/10 09:11:52;;;;;;;;;;;;;;;42.21;19.43;101057.66;4960972;28;98139;-62
2022/05/10 09:14:22;;;;;;;;;;;;;;;41.33;20.07;101062.97;4957532;28;97891;-63
2022/05/10 09:16:48;;;;;;;;;;;;;;;40.68;20.58;101057.03;4940625;28;129189;-63
2022/05/10 09:19:14;;;;;;;;;;;;;;;40.34;21.03;101051.47;4956885;28;127127;-63
2022/05/10 09:21:48;;;;;;;;;;;;;;;40.21;21.02;101051.53;4941778;28;126730;-62
2022/05/10 09:24:40;;;;;;;;;;;;;;;40.60;20.50;101047.28;4945238;28;98178;-62
2022/05/10 09:27:09;;;;;;;;;;;;;;;41.50;19.98;101057.88;4957340;28;124288;-62
2022/05/10 09:29:46;;;;;;;;;;;;;;;42.08;19.41;101051.34;4966385;28;99232;-63
2022/05/10 09:35:24;;;;;;;;;;;;;;;43.48;18.04;101045.63;4947680;28;98042;-63
2022/05/10 09:37:58;;;;;;;;;;;;;;;43.68;17.49;101050.69;4939785;28;123397;-62
2022/05/10 09:40:26;;;;;;;;;;;;;;;43.80;18.16;101044.75;4941568;28;98428;-63
2022/05/10 09:42:53;;;;;;;;;;;;;;;43.86;18.18;101036.38;4956423;28;98288;-63
2022/05/10 09:45:23;;;;;;;;;;;;;;;44.23;18.09;101042.50;4955455;28;98562;-63
2022/05/10 09:47:58;;;;;;;;;;;;;;;44.60;17.40;101027.94;4961586;28;98367;-64
2022/05/10 09:50:34;;;;;;;;;;;;;;;44.94;17.65;101017.91;4956667;28;99107;-63
2022/05/10 09:53:38;;;;;;;;;;;;;;;45.31;17.54;101014.56;4961250;28;98711;-63
2022/05/10 09:56:22;;;;;;;;;;;;;;;45.60;17.07;101030.75;4940504;28;98543;-63
2022/05/10 09:58:58;;;;;;;;;;;;;;;45.37;17.30;101011.81;4942214;28;101434;-62
2022/05/10 10:01:43;;;;;;;;;;;;;;;44.13;17.79;101009.78;4972244;28;97904;-63
2022/05/10 10:04:33;;;;;;;;;;;;;;;41.77;18.67;101007.00;4940193;28;98075;-62
2022/05/10 10:07:03;;;;;;;;;;;;;;;40.88;19.00;101000.16;4942433;28;97771;-62
2022/05/10 10:09:35;;;;;;;;;;;;;;;39.31;19.68;100988.94;4942505;28;98898;-62
2022/05/10 10:12:01;;;;;;;;;;;;;;;39.55;19.73;100991.34;4950834;28;98551;-62
2022/05/10 10:14:46;;;;;;;;;;;;;;;37.30;20.72;100987.41;4953901;28;98369;-62
2022/05/10 10:17:23;;;;;;;;;;;;;;;36.21;21.30;100983.78;4940738;28;97833;-62
2022/05/10 10:20:01;;;;;;;;;;;;;;;35.19;21.46;100982.34;4942986;28;125042;-61
2022/05/10 10:22:52;;;;;;;;;;;;;;;38.04;20.04;100987.50;4940690;28;98314;-62
2022/05/10 10:25:26;;;;;;;;;;;;;;;38.86;19.34;100984.31;4951892;28;121847;-62
2022/05/10 10:28:14;;;;;;;;;;;;;;;39.65;19.05;100987.34;4959850;28;98354;-62
2022/05/10 10:30:58;;;;;;;;;;;;;;;40.32;18.79;100986.19;4950487;28;99008;-62
2022/05/10 10:33:36;;;;;;;;;;;;;;;39.38;19.59;100968.97;4941875;28;99043;-62
2022/05/10 10:36:20;;;;;;;;;;;;;;;40.18;18.80;100973.44;4940809;28;98645;-62
2022/05/10 10:38:55;;;;;;;;;;;;;;;40.52;18.55;100974.53;4938610;28;117900;-62
2022/05/10 10:41:51;;;;;;;;;;;;;;;40.86;18.63;100970.81;4954660;28;98345;-62
2022/05/10 10:44:21;;;;;;;;;;;;;;;41.16;18.41;100967.16;4954196;28;98335;-63
2022/05/10 10:46:52;;;;;;;;;;;;;;;41.14;18.42;100966.81;4941877;28;98028;-62
2022/05/10 10:49:21;;;;;;;;;;;;;;;39.72;19.27;100964.59;4943088;28;98107;-62
2022/05/10 10:51:49;;;;;;;;;;;;;;;38.72;19.81;100956.59;4938219;28;116715;-61
2022/05/10 10:54:22;;;;;;;;;;;;;;;37.62;20.23;100955.69;4942010;28;98613;-61
2022/05/10 10:56:56;;;;;;;;;;;;;;;37.01;20.36;100943.13;4949917;28;126466;-62
2022/05/10 10:59:30;;;;;;;;;;;;;;;36.09;20.87;100937.53;4942445;28;114597;-63
2022/05/10 11:02:14;;;;;;;;;;;;;;;35.10;21.86;100936.06;4946910;28;98353;-62
2022/05/10 11:04:48;;;;;;;;;;;;;;;37.10;20.32;100943.34;4943286;28;124272;-63
2022/05/10 11:07:48;;;;;;;;;;;;;;;37.52;20.06;100935.03;4960203;28;97835;-62
2022/05/10 11:10:30;;;;;;;;;;;;;;;36.78;20.73;100941.25;4928578;28;97936;-62
2022/05/10 11:12:59;;;;;;;;;;;;;;;37.96;20.07;100943.91;4967376;28;98929;-62
2022/05/10 11:15:36;;;;;;;;;;;;;;;37.64;20.47;100933.53;4940912;28;98248;-63
2022/05/10 11:18:15;;;;;;;;;;;;;;;38.10;19.82;100927.88;4939774;28;98035;-62
2022/05/10 11:21:05;;;;;;;;;;;;;;;38.29;19.75;100924.09;4941195;28;97689;-63
2022/05/10 11:23:56;;;;;;;;;;;;;;;36.37;20.85;100922.13;4941502;28;99220;-62
2022/05/10 11:26:45;;;;;;;;;;;;;;;36.57;20.79;100910.88;4938665;28;99690;-63
2022/05/10 11:29:21;;;;;;;;;;;;;;;36.86;20.35;100913.78;4939531;28;127133;-63
2022/05/10 11:31:56;;;;;;;;;;;;;;;35.71;21.19;100911.81;4940584;28;97948;-62
2022/05/10 11:34:42;;;;;;;;;;;;;;;35.20;21.37;100903.50;4960537;28;98950;-63
2022/05/10 11:37:12;;;;;;;;;;;;;;;34.34;21.63;100906.75;4959030;28;104781;-63
2022/05/10 11:39:54;;;;;;;;;;;;;;;35.37;21.20;100910.00;4957808;28;97975;-62
2022/05/10 11:42:35;;;;;;;;;;;;;;;36.04;21.00;100905.19;4958801;28;98256;-62
2022/05/10 11:45:15;;;;;;;;;;;;;;;36.48;20.90;100907.88;4955659;28;99120;-64
2022/05/10 11:48:12;;;;;;;;;;;;;;;36.69;20.74;100898.16;4957599;28;123589;-63
2022/05/10 11:54:25;;;;;;;;;;;;;;;36.13;21.25;100887.78;4955635;28;97943;-63
2022/05/10 11:56:51;;;;;;;;;;;;;;;36.43;21.02;100877.47;4952212;28;98443;-62
2022/05/10 11:59:25;;;;;;;;;;;;;;;36.68;21.20;100885.38;4958607;28;98699;-62
2022/05/10 12:01:55;;;;;;;;;;;;;;;36.86;21.19;100878.09;4959334;28;97958;-62
2022/05/10 12:04:40;;;;;;;;;;;;;;;37.03;20.81;100878.91;4958059;28;107276;-63
2022/05/10 12:07:20;;;;;;;;;;;;;;;37.14;21.10;100880.63;4959556;28;99298;-63
2022/05/10 12:09:52;;;;;;;;;;;;;;;37.25;20.89;100867.09;4951265;28;98506;-62
2022/05/10 12:12:47;;;;;;;;;;;;;;;37.18;21.24;100856.06;4955584;28;98218;-62
2022/05/10 12:21:32;;;;;;;;;;;;;;;36.18;21.41;100850.78;4942795;28;97986;-62
2022/05/10 12:24:20;;;;;;;;;;;;;;;36.13;21.60;100852.09;4942359;28;106719;-62
2022/05/10 12:27:12;;;;;;;;;;;;;;;36.39;21.37;100846.69;4944664;28;97723;-62
2022/05/10 12:29:38;;;;;;;;;;;;;;;36.53;21.46;100852.03;4933646;28;98570;-62
2022/05/10 12:32:26;;;;;;;;;;;;;;;36.60;21.43;100840.63;4944008;28;99293;-62
2022/05/10 12:34:56;;;;;;;;;;;;;;;36.63;21.40;100836.16;4953812;28;97871;-63
2022/05/10 12:37:28;;;;;;;;;;;;;;;36.57;21.43;100826.69;4948899;28;98143;-62
2022/05/10 12:40:09;;;;;;;;;;;;;;;36.47;21.39;100828.53;4952848;28;99118;-63
2022/05/10 12:43:07;;;;;;;;;;;;;;;35.83;21.91;100821.47;4963526;28;101064;-62
2022/05/10 12:45:55;;;;;;;;;;;;;;;35.90;21.57;100810.91;4960326;28;127188;-62
2022/05/10 12:48:30;;;;;;;;;;;;;;;35.95;21.34;100806.78;4961789;28;97916;-62
2022/05/10 12:51:14;;;;;;;;;;;;;;;36.04;21.49;100812.66;4962333;28;98594;-62
2022/05/10 12:53:59;;;;;;;;;;;;;;;35.76;21.83;100805.59;4963431;28;98280;-62
2022/05/10 12:56:25;;;;;;;;;;;;;;;35.49;22.16;100797.34;4959458;28;98513;-62
2022/05/10 12:59:00;;;;;;;;;;;;;;;34.93;22.51;100799.94;4958661;28;103645;-61
2022/05/10 13:01:27;;;;;;;;;;;;;;;34.33;22.91;100793.28;4958178;28;109069;-62
2022/05/10 13:03:59;;;;;;;;;;;;;;;34.41;22.73;100791.97;4961416;28;98039;-63
2022/05/10 13:06:48;;;;;;;;;;;;;;;34.48;22.23;100786.25;4943575;28;98018;-64
2022/05/10 13:09:18;;;;;;;;;;;;;;;33.84;22.37;100779.56;4945574;28;98568;-63
2022/05/10 13:12:00;;;;;;;;;;;;;;;33.85;22.84;100775.56;4958422;28;98890;-64
2022/05/10 13:14:26;;;;;;;;;;;;;;;34.06;22.36;100768.13;4960975;28;98442;-63
2022/05/10 13:16:53;;;;;;;;;;;;;;;33.39;22.85;100767.72;4962049;28;98238;-62
2022/05/10 13:19:21;;;;;;;;;;;;;;;33.13;22.80;100758.84;4950719;28;97799;-62
2022/05/10 13:21:48;;;;;;;;;;;;;;;33.47;22.54;100760.88;4940890;28;98556;-62